Time;durP1;ratioP1;P1;durP2;ratioP2;P2;SDS_P1;SDS_P2;PMS_P1;PMS_P2;Temp;Humidity;BMP_temperature;BMP_pressure;BME280_temperature;BME280_humidity;BME280_pressure;Samples;Min_cycle;Max_cycle;Signal;HPM_P1;HPM_P2
2022/06/01 00:01:13;;;;;;;18.05;9.15;;;13.20;99.90;;;;;;4995402;28;20050;-76
2022/06/01 00:03:43;;;;;;;18.50;9.63;;;13.20;99.90;;;;;;4995068;28;20042;-75
2022/06/01 00:06:12;;;;;;;16.27;9.90;;;13.20;99.90;;;;;;4995002;28;20081;-75
2022/06/01 00:08:40;;;;;;;41.92;9.82;;;13.20;99.90;;;;;;5012271;28;20501;-76
2022/06/01 00:11:09;;;;;;;32.33;8.70;;;13.10;99.90;;;;;;5015641;28;20061;-77
2022/06/01 00:13:36;;;;;;;31.40;9.23;;;13.10;99.90;;;;;;5014448;28;20042;-77
2022/06/01 00:16:07;;;;;;;20.38;8.65;;;13.10;99.90;;;;;;5014546;28;20516;-76
2022/06/01 00:18:34;;;;;;;12.15;7.65;;;13.00;99.90;;;;;;5014574;28;20049;-76
2022/06/01 00:21:04;;;;;;;12.65;6.80;;;13.00;99.90;;;;;;5014859;28;20121;-76
2022/06/01 00:23:31;;;;;;;12.95;7.45;;;12.90;99.90;;;;;;5030266;28;20042;-77
2022/06/01 00:25:59;;;;;;;13.82;7.28;;;12.90;99.90;;;;;;5032819;28;20080;-76
2022/06/01 00:28:26;;;;;;;14.02;7.10;;;12.80;99.90;;;;;;5016630;28;20048;-77
2022/06/01 00:30:53;;;;;;;13.15;6.40;;;12.80;99.90;;;;;;5034507;28;20049;-77
2022/06/01 00:33:21;;;;;;;12.63;6.80;;;12.70;99.90;;;;;;5006880;28;20042;-77
2022/06/01 00:35:48;;;;;;;15.25;6.43;;;12.70;99.90;;;;;;5014426;28;20526;-75
2022/06/01 00:38:17;;;;;;;18.55;7.15;;;12.70;99.90;;;;;;5009738;28;20050;-76
2022/06/01 00:40:45;;;;;;;10.07;6.32;;;12.60;99.90;;;;;;5032217;28;20063;-76
2022/06/01 00:43:23;;;;;;;8.95;6.07;;;12.60;99.90;;;;;;5016010;28;20080;-76
2022/06/01 00:45:50;;;;;;;12.20;5.45;;;12.70;99.90;;;;;;5034094;28;20045;-75
2022/06/01 00:48:18;;;;;;;12.32;5.97;;;12.70;99.90;;;;;;5034011;28;20091;-76
2022/06/01 00:50:46;;;;;;;9.57;5.80;;;12.60;99.90;;;;;;5033672;28;20116;-76
2022/06/01 00:53:19;;;;;;;10.45;6.15;;;12.70;99.90;;;;;;5030504;28;20132;-76
2022/06/01 00:55:49;;;;;;;10.10;7.10;;;12.70;99.90;;;;;;5033501;28;20045;-75
2022/06/01 00:58:23;;;;;;;13.60;6.55;;;12.70;99.90;;;;;;5016032;28;20038;-76
2022/06/01 01:00:53;;;;;;;12.57;6.28;;;12.70;99.90;;;;;;5010381;28;20496;-77
2022/06/01 01:03:22;;;;;;;10.43;6.40;;;12.60;99.90;;;;;;4996306;28;20125;-76
2022/06/01 01:05:56;;;;;;;13.63;6.70;;;12.60;99.90;;;;;;5013692;28;20404;-76
2022/06/01 01:08:25;;;;;;;13.98;7.30;;;12.50;99.90;;;;;;5014807;28;20192;-76
2022/06/01 01:10:52;;;;;;;13.00;7.68;;;12.50;99.90;;;;;;5015170;28;20065;-76
2022/06/01 01:13:20;;;;;;;15.55;9.23;;;12.50;99.90;;;;;;4997733;28;20046;-76
2022/06/01 01:15:52;;;;;;;21.35;12.88;;;12.50;99.90;;;;;;5015151;28;20046;-75
2022/06/01 01:18:22;;;;;;;25.13;14.73;;;12.40;99.90;;;;;;4997807;28;20050;-76
2022/06/01 01:21:02;;;;;;;35.58;26.83;;;12.40;99.90;;;;;;5014643;28;20112;-77
2022/06/01 01:23:37;;;;;;;15.15;7.15;;;12.40;99.90;;;;;;5028708;28;20042;-74
2022/06/01 01:26:07;;;;;;;12.60;7.28;;;12.40;99.90;;;;;;5031470;28;20527;-75
2022/06/01 01:28:34;;;;;;;17.50;13.48;;;12.40;99.90;;;;;;5012189;28;20050;-76
2022/06/01 01:31:06;;;;;;;30.17;21.65;;;12.40;99.90;;;;;;5013571;28;20049;-77
2022/06/01 01:33:34;;;;;;;17.73;9.15;;;12.40;99.90;;;;;;5013617;28;20481;-76
2022/06/01 01:36:04;;;;;;;14.40;7.63;;;12.40;99.90;;;;;;5014536;28;20057;-76
2022/06/01 01:38:41;;;;;;;9.27;6.70;;;12.30;99.90;;;;;;5031184;28;20045;-76
2022/06/01 01:41:14;;;;;;;8.70;6.75;;;12.30;99.90;;;;;;5033529;28;20500;-75
2022/06/01 01:43:47;;;;;;;14.35;7.18;;;12.30;99.90;;;;;;5033222;28;20064;-76
2022/06/01 01:46:15;;;;;;;14.00;6.25;;;12.30;99.90;;;;;;5033034;28;20041;-76
2022/06/01 01:48:43;;;;;;;12.30;6.95;;;12.30;99.90;;;;;;5033182;28;20476;-77
2022/06/01 01:51:12;;;;;;;9.63;6.18;;;12.30;99.90;;;;;;5035699;28;20412;-78
2022/06/01 01:53:40;;;;;;;10.70;6.30;;;12.30;99.90;;;;;;5031895;28;20099;-76
2022/06/01 01:56:31;;;;;;;8.05;5.90;;;12.20;99.90;;;;;;5034769;28;20408;-77
2022/06/01 01:59:15;;;;;;;9.57;6.00;;;12.20;99.90;;;;;;5036654;28;20042;-77
2022/06/01 02:01:50;;;;;;;10.63;5.70;;;12.10;99.90;;;;;;5036634;28;20041;-75
2022/06/01 02:07:19;;;;;;;9.80;5.60;;;12.20;99.90;;;;;;5013724;28;20290;-77
2022/06/01 02:12:42;;;;;;;10.73;5.55;;;12.10;99.90;;;;;;5013774;28;20046;-75
2022/06/01 02:15:14;;;;;;;9.07;5.35;;;12.10;99.90;;;;;;5015511;28;20145;-76
2022/06/01 02:17:49;;;;;;;10.60;5.93;;;12.00;99.90;;;;;;5016992;28;20490;-77
2022/06/01 02:20:23;;;;;;;6.87;5.03;;;12.10;99.90;;;;;;5016511;28;20072;-77
2022/06/01 02:22:51;;;;;;;8.35;5.18;;;12.00;99.90;;;;;;5004492;28;20052;-76
2022/06/01 02:25:19;;;;;;;9.35;5.55;;;12.00;99.90;;;;;;4995963;28;20054;-77
2022/06/01 02:27:51;;;;;;;10.82;5.88;;;11.90;99.90;;;;;;4995516;28;20061;-76
2022/06/01 02:30:23;;;;;;;9.07;5.40;;;11.90;99.90;;;;;;4996785;28;20049;-76
2022/06/01 02:32:51;;;;;;;22.33;5.90;;;11.90;99.90;;;;;;4995206;28;20517;-75
2022/06/01 02:35:22;;;;;;;13.45;5.70;;;11.90;99.90;;;;;;4995238;28;20054;-77
2022/06/01 02:37:54;;;;;;;9.93;5.47;;;11.80;99.90;;;;;;5006454;28;20069;-76
2022/06/01 02:40:25;;;;;;;10.00;5.78;;;11.80;99.90;;;;;;5014609;28;20567;-77
2022/06/01 02:42:55;;;;;;;14.23;6.25;;;11.70;99.90;;;;;;5015291;28;20503;-77
2022/06/01 02:45:26;;;;;;;12.52;6.38;;;11.80;99.90;;;;;;5016054;28;20043;-76
2022/06/01 02:47:56;;;;;;;8.93;4.88;;;11.80;99.90;;;;;;5015628;28;20408;-76
2022/06/01 02:50:27;;;;;;;12.13;5.60;;;11.70;99.90;;;;;;5015096;28;20500;-76
2022/06/01 02:52:56;;;;;;;8.48;5.60;;;11.80;99.90;;;;;;5012449;28;20073;-76
2022/06/01 02:55:24;;;;;;;10.90;5.40;;;11.70;99.90;;;;;;5015530;28;20050;-76
2022/06/01 02:57:55;;;;;;;11.95;5.35;;;11.80;99.90;;;;;;5013046;28;20046;-76
2022/06/01 03:00:24;;;;;;;11.68;5.28;;;11.80;99.90;;;;;;5023994;28;20053;-76
2022/06/01 03:02:57;;;;;;;8.02;5.10;;;11.70;99.90;;;;;;5020326;28;20048;-76
2022/06/01 03:05:25;;;;;;;7.50;4.78;;;11.70;99.90;;;;;;5018052;28;20069;-76
2022/06/01 03:07:53;;;;;;;12.45;5.20;;;11.70;99.90;;;;;;5008735;28;20054;-77
2022/06/01 03:10:22;;;;;;;8.13;4.88;;;11.70;99.90;;;;;;5002720;28;20053;-75
2022/06/01 03:12:49;;;;;;;13.05;5.03;;;11.70;99.90;;;;;;5000624;28;20042;-76
2022/06/01 03:15:20;;;;;;;8.88;4.68;;;11.70;99.90;;;;;;4999888;28;20049;-76
2022/06/01 03:17:48;;;;;;;10.52;4.90;;;11.80;99.90;;;;;;4995612;28;20506;-77
2022/06/01 03:20:19;;;;;;;7.75;4.32;;;11.80;99.90;;;;;;4995768;28;20486;-75
2022/06/01 03:22:47;;;;;;;5.70;4.07;;;11.80;99.90;;;;;;5005069;28;20046;-76
2022/06/01 03:25:16;;;;;;;8.35;4.40;;;11.80;99.90;;;;;;5013806;28;20416;-77
2022/06/01 03:27:44;;;;;;;10.05;4.30;;;11.80;99.90;;;;;;5010651;28;20382;-76
2022/06/01 03:30:15;;;;;;;9.13;4.50;;;11.80;99.90;;;;;;5015272;28;20045;-76
2022/06/01 03:32:44;;;;;;;11.48;4.53;;;11.80;99.90;;;;;;5013635;28;20046;-77
2022/06/01 03:35:13;;;;;;;9.38;4.07;;;11.90;99.90;;;;;;5013981;28;20524;-75
2022/06/01 03:37:40;;;;;;;12.60;4.72;;;12.00;99.90;;;;;;5014294;28;20056;-76
2022/06/01 03:40:09;;;;;;;12.07;4.85;;;12.00;99.90;;;;;;5014628;28;20042;-77
2022/06/01 03:42:37;;;;;;;7.10;4.10;;;12.10;99.90;;;;;;5013063;28;20046;-77
2022/06/01 03:47:52;;;;;;;13.45;6.30;;;12.30;99.90;;;;;;5013514;28;20048;-76
2022/06/01 03:50:19;;;;;;;20.50;8.90;;;12.40;99.90;;;;;;5015036;28;20405;-76
2022/06/01 03:52:47;;;;;;;14.52;8.48;;;12.50;99.90;;;;;;5010642;28;20054;-76
2022/06/01 03:55:15;;;;;;;14.50;6.70;;;13.00;99.90;;;;;;5006326;28;20050;-75
2022/06/01 03:57:43;;;;;;;12.50;6.78;;;13.60;99.90;;;;;;5000163;28;20051;-76
2022/06/01 04:00:13;;;;;;;13.50;5.82;;;14.30;99.90;;;;;;4995054;28;20046;-77
2022/06/01 04:02:42;;;;;;;9.57;5.05;;;15.00;99.90;;;;;;4993920;28;20108;-77
2022/06/01 04:05:11;;;;;;;5.97;4.47;;;15.70;99.90;;;;;;4995223;28;20061;-77
2022/06/01 04:07:39;;;;;;;7.68;3.63;;;16.20;99.90;;;;;;5004181;28;20053;-77
2022/06/01 04:10:07;;;;;;;5.78;3.50;;;16.50;99.90;;;;;;4997205;28;20077;-76
2022/06/01 04:12:35;;;;;;;12.85;4.30;;;16.70;99.90;;;;;;5014706;28;20041;-77
2022/06/01 04:15:04;;;;;;;12.20;3.40;;;17.10;99.90;;;;;;5014263;28;20038;-76
2022/06/01 04:17:31;;;;;;;8.27;3.08;;;17.40;99.90;;;;;;5014012;28;20053;-78
2022/06/01 04:19:58;;;;;;;12.88;3.30;;;18.00;99.90;;;;;;4997867;28;20038;-76
2022/06/01 04:22:27;;;;;;;8.32;3.15;;;18.40;99.90;;;;;;5015782;28;20046;-77
2022/06/01 04:24:55;;;;;;;7.95;3.30;;;19.00;99.90;;;;;;5014383;28;20042;-76
2022/06/01 04:27:23;;;;;;;17.10;4.50;;;19.30;99.90;;;;;;5015489;28;20065;-77
2022/06/01 04:29:50;;;;;;;7.10;3.72;;;19.80;99.90;;;;;;5014351;28;20091;-77
2022/06/01 04:32:24;;;;;;;8.15;4.40;;;20.10;99.90;;;;;;4996626;28;20053;-77
2022/06/01 04:34:52;;;;;;;12.02;4.13;;;20.70;99.90;;;;;;4996676;28;20061;-78
2022/06/01 04:37:19;;;;;;;15.18;4.90;;;20.90;99.90;;;;;;5029489;28;20120;-77
2022/06/01 04:39:48;;;;;;;13.55;6.10;;;21.20;99.90;;;;;;5042469;28;20038;-77
2022/06/01 04:42:15;;;;;;;12.43;5.53;;;21.50;99.90;;;;;;5039496;28;20053;-76
2022/06/01 04:44:43;;;;;;;10.68;3.90;;;21.90;99.90;;;;;;5022759;28;20049;-76
2022/06/01 04:47:10;;;;;;;10.80;3.60;;;22.20;99.90;;;;;;5024922;28;20050;-76
2022/06/01 04:49:37;;;;;;;11.40;3.80;;;22.50;99.90;;;;;;5025123;28;20068;-75
2022/06/01 04:52:06;;;;;;;12.98;3.38;;;22.90;99.90;;;;;;5021227;28;20416;-76
2022/06/01 04:54:34;;;;;;;12.98;3.60;;;23.20;99.90;;;;;;5014222;28;20092;-76
2022/06/01 04:57:03;;;;;;;8.38;3.13;;;23.50;99.90;;;;;;5015308;28;20054;-77
2022/06/01 04:59:31;;;;;;;13.23;3.80;;;22.80;99.90;;;;;;5013887;28;20049;-76
2022/06/01 05:01:58;;;;;;;12.13;3.28;;;23.00;99.90;;;;;;5016853;28;20125;-77
2022/06/01 05:04:28;;;;;;;9.45;3.22;;;23.10;99.90;;;;;;5025641;28;20049;-77
2022/06/01 05:07:00;;;;;;;15.48;3.33;;;23.50;99.90;;;;;;5035316;28;20470;-78
2022/06/01 05:09:28;;;;;;;11.20;2.83;;;23.70;99.90;;;;;;5055102;28;20067;-77
2022/06/01 05:11:56;;;;;;;6.57;3.60;;;23.90;99.90;;;;;;5031899;28;20447;-76
2022/06/01 05:14:25;;;;;;;10.25;3.40;;;24.10;99.90;;;;;;5018423;28;20400;-76
2022/06/01 05:16:52;;;;;;;8.32;3.60;;;24.80;99.90;;;;;;5002239;28;20050;-77
2022/06/01 05:19:20;;;;;;;6.93;3.08;;;25.00;99.90;;;;;;5041256;28;20045;-77
2022/06/01 05:21:47;;;;;;;9.20;3.60;;;25.40;99.90;;;;;;5045658;28;20045;-76
2022/06/01 05:24:15;;;;;;;8.48;4.35;;;25.70;99.90;;;;;;5010403;28;20057;-77
2022/06/01 05:26:42;;;;;;;14.18;4.50;;;25.90;99.90;;;;;;5047427;28;20102;-76
2022/06/01 05:29:10;;;;;;;9.27;3.60;;;26.40;99.90;;;;;;5019455;28;20042;-75
2022/06/01 05:31:38;;;;;;;6.22;3.50;;;26.40;99.90;;;;;;5033474;28;20046;-75
2022/06/01 05:34:06;;;;;;;13.18;3.30;;;26.40;99.90;;;;;;5041645;28;20127;-76
2022/06/01 05:36:33;;;;;;;11.07;3.25;;;26.50;99.90;;;;;;5036900;28;20049;-77
2022/06/01 05:39:01;;;;;;;10.93;3.22;;;26.50;99.90;;;;;;5031321;28;20094;-77
2022/06/01 05:41:28;;;;;;;4.97;2.72;;;26.40;99.90;;;;;;5026079;28;20036;-77
2022/06/01 05:43:55;;;;;;;6.40;3.38;;;26.00;99.90;;;;;;5050271;28;20069;-77
2022/06/01 05:46:23;;;;;;;11.45;3.50;;;26.00;99.90;;;;;;5046465;28;20033;-76
2022/06/01 05:48:52;;;;;;;7.38;2.90;;;25.40;99.90;;;;;;5037659;28;20049;-77
2022/06/01 05:51:20;;;;;;;10.40;3.97;;;25.10;99.90;;;;;;5047658;28;20042;-77
2022/06/01 05:53:48;;;;;;;7.45;2.80;;;24.80;99.90;;;;;;5037362;28;20129;-77
2022/06/01 05:56:15;;;;;;;8.40;3.42;;;24.10;99.90;;;;;;5038533;28;20045;-77
2022/06/01 05:58:42;;;;;;;7.22;2.88;;;23.60;99.90;;;;;;5024244;28;20064;-77
2022/06/01 06:01:10;;;;;;;13.57;2.92;;;23.10;99.90;;;;;;5024426;28;20056;-77
2022/06/01 06:03:37;;;;;;;10.02;2.97;;;22.70;99.90;;;;;;5021172;28;20490;-76
2022/06/01 06:06:20;;;;;;;10.85;2.88;;;22.40;99.90;;;;;;5031311;28;20049;-76
2022/06/01 06:08:52;;;;;;;10.38;3.47;;;22.20;99.90;;;;;;5020341;28;20060;-76
2022/06/01 06:11:20;;;;;;;10.25;3.03;;;22.20;99.90;;;;;;5021772;28;20121;-77
2022/06/01 06:13:48;;;;;;;7.93;3.10;;;21.80;99.90;;;;;;5019724;28;20053;-77
2022/06/01 06:16:17;;;;;;;7.95;2.75;;;21.60;99.90;;;;;;5018496;28;20050;-76
2022/06/01 06:18:45;;;;;;;7.32;2.67;;;21.60;99.90;;;;;;5018290;28;20049;-77
2022/06/01 06:21:14;;;;;;;11.50;3.40;;;21.70;99.90;;;;;;5010637;28;20061;-77
2022/06/01 06:23:45;;;;;;;7.88;3.20;;;21.70;99.90;;;;;;5025099;28;20051;-76
2022/06/01 06:26:12;;;;;;;16.83;4.25;;;21.80;99.90;;;;;;5039504;28;20412;-77
2022/06/01 06:28:39;;;;;;;11.27;4.70;;;21.90;99.90;;;;;;5027506;28;20054;-77
2022/06/01 06:31:07;;;;;;;10.85;3.17;;;22.20;99.90;;;;;;5001502;28;20147;-76
2022/06/01 06:33:34;;;;;;;7.22;4.00;;;22.60;99.90;;;;;;5019840;28;20045;-77
2022/06/01 06:36:05;;;;;;;9.18;3.35;;;23.10;99.90;;;;;;5035754;28;20049;-77
2022/06/01 06:38:36;;;;;;;9.15;3.10;;;23.60;99.90;;;;;;5036203;28;20053;-76
2022/06/01 06:41:05;;;;;;;8.13;3.70;;;24.00;99.90;;;;;;5023622;28;20038;-76
2022/06/01 06:43:35;;;;;;;9.23;3.20;;;24.20;99.90;;;;;;5016310;28;20108;-77
2022/06/01 06:46:06;;;;;;;6.57;2.95;;;24.30;99.90;;;;;;4999361;28;20058;-76
2022/06/01 06:48:33;;;;;;;20.80;4.57;;;24.10;99.90;;;;;;4999898;28;20050;-77
2022/06/01 06:51:01;;;;;;;10.23;2.97;;;23.90;99.90;;;;;;4999353;28;20096;-77
2022/06/01 06:53:29;;;;;;;13.38;3.50;;;24.00;99.90;;;;;;5016213;28;20057;-76
2022/06/01 06:55:58;;;;;;;11.18;4.43;;;24.20;99.90;;;;;;5020128;28;20049;-77
2022/06/01 06:58:26;;;;;;;13.52;4.53;;;24.40;99.90;;;;;;5029380;28;20067;-76
2022/06/01 07:00:53;;;;;;;13.05;4.65;;;24.50;99.90;;;;;;5014731;28;20504;-77
2022/06/01 07:03:21;;;;;;;12.45;3.85;;;24.90;99.90;;;;;;5009170;28;20099;-78
2022/06/01 07:08:34;;;;;;;7.40;3.00;;;25.30;99.90;;;;;;5016257;28;20060;-76
2022/06/01 07:11:03;;;;;;;11.18;3.40;;;25.40;99.90;;;;;;4998566;28;20049;-77
2022/06/01 07:13:30;;;;;;;16.67;3.70;;;25.40;99.90;;;;;;5016293;28;20413;-76
2022/06/01 07:16:03;;;;;;;12.32;4.10;;;25.50;99.90;;;;;;5016322;28;20053;-76
2022/06/01 07:18:30;;;;;;;11.50;3.97;;;25.40;99.90;;;;;;5016617;28;20057;-76
2022/06/01 07:20:58;;;;;;;9.82;4.40;;;25.30;99.90;;;;;;5016008;28;20038;-78
2022/06/01 07:23:26;;;;;;;11.20;4.68;;;25.00;99.90;;;;;;4998907;28;20049;-77
2022/06/01 07:25:54;;;;;;;13.68;5.15;;;24.30;99.90;;;;;;4998292;28;20076;-76
2022/06/01 07:28:23;;;;;;;12.60;4.90;;;24.50;99.90;;;;;;5015516;28;20482;-77
2022/06/01 07:30:56;;;;;;;14.63;7.32;;;24.50;99.90;;;;;;5015833;28;20038;-76
2022/06/01 07:33:25;;;;;;;17.95;7.07;;;24.70;99.90;;;;;;5015358;28;20080;-76
2022/06/01 07:35:53;;;;;;;12.30;4.90;;;24.90;99.90;;;;;;5015561;28;20042;-77
2022/06/01 07:43:53;;;;;;;12.75;4.97;;;25.10;99.90;;;;;;4997945;28;20420;-75
2022/06/01 07:46:20;;;;;;;17.40;6.25;;;25.10;99.90;;;;;;5015559;28;20038;-77
2022/06/01 07:48:49;;;;;;;12.75;5.03;;;25.30;99.90;;;;;;4997764;28;20080;-76
2022/06/01 07:51:18;;;;;;;14.93;6.30;;;25.20;99.90;;;;;;5015919;28;20046;-77
2022/06/01 07:53:45;;;;;;;14.90;5.88;;;25.20;99.90;;;;;;5015877;28;20111;-77
2022/06/01 07:56:13;;;;;;;15.27;5.90;;;25.40;99.90;;;;;;5016134;28;20053;-78
2022/06/01 07:58:40;;;;;;;12.90;6.03;;;25.80;99.90;;;;;;5020722;28;20041;-76
2022/06/01 08:01:09;;;;;;;13.73;5.07;;;26.10;99.90;;;;;;5013522;28;20050;-76
2022/06/01 08:03:36;;;;;;;13.13;5.80;;;26.30;99.90;;;;;;5018330;28;20108;-77
2022/06/01 08:06:04;;;;;;;14.35;5.68;;;26.50;99.90;;;;;;5015960;28;20050;-76
2022/06/01 08:08:31;;;;;;;17.60;7.10;;;26.50;99.90;;;;;;5014934;28;20053;-76
2022/06/01 08:11:00;;;;;;;13.93;5.95;;;26.60;99.90;;;;;;4997029;28;20111;-77
2022/06/01 08:13:27;;;;;;;13.23;6.40;;;26.50;99.90;;;;;;5014644;28;20053;-77
2022/06/01 08:15:55;;;;;;;15.10;5.40;;;26.40;99.90;;;;;;4997442;28;20041;-77
2022/06/01 08:18:25;;;;;;;16.20;6.97;;;26.30;99.90;;;;;;5015041;28;20042;-77
2022/06/01 08:20:53;;;;;;;12.02;6.50;;;26.00;99.90;;;;;;5014962;28;20061;-76
2022/06/01 08:23:22;;;;;;;16.08;8.23;;;26.00;99.90;;;;;;4997213;28;20102;-77
2022/06/01 08:25:50;;;;;;;24.98;8.55;;;26.10;99.90;;;;;;5014782;28;20108;-77
2022/06/01 08:28:18;;;;;;;16.88;6.47;;;26.30;99.90;;;;;;5014852;28;20073;-77
2022/06/01 08:30:46;;;;;;;16.42;7.70;;;26.60;99.90;;;;;;5015167;28;20049;-76
2022/06/01 08:33:13;;;;;;;15.45;7.88;;;26.80;99.90;;;;;;5016744;28;20042;-76
2022/06/01 08:35:46;;;;;;;12.90;7.97;;;26.80;99.90;;;;;;5002941;28;20113;-77
2022/06/01 08:38:14;;;;;;;19.33;8.07;;;27.00;99.90;;;;;;5005044;28;20050;-76
2022/06/01 08:40:52;;;;;;;12.00;7.18;;;27.10;99.90;;;;;;5021402;28;20038;-76
2022/06/01 08:43:22;;;;;;;14.82;7.75;;;27.00;99.90;;;;;;5019757;28;20049;-77
2022/06/01 08:45:53;;;;;;;12.48;5.80;;;27.30;99.90;;;;;;5020030;28;20100;-77
2022/06/01 08:48:29;;;;;;;13.32;5.43;;;27.30;99.90;;;;;;5018738;28;20041;-76
2022/06/01 08:50:58;;;;;;;14.35;5.57;;;27.00;99.90;;;;;;4998785;28;20497;-76
2022/06/01 08:53:26;;;;;;;21.08;7.55;;;27.00;99.90;;;;;;5015537;28;20045;-74
2022/06/01 08:55:58;;;;;;;11.10;5.50;;;27.20;99.90;;;;;;5015080;28;20413;-76
2022/06/01 08:58:34;;;;;;;9.43;4.45;;;27.40;99.90;;;;;;4996902;28;20148;-76
2022/06/01 09:01:12;;;;;;;12.68;6.70;;;27.40;99.90;;;;;;5014385;28;20038;-77
2022/06/01 09:03:47;;;;;;;16.98;5.78;;;27.60;99.90;;;;;;4996550;28;20201;-76
2022/06/01 09:06:20;;;;;;;15.93;5.45;;;27.70;99.90;;;;;;5014812;28;20205;-76
2022/06/01 09:08:53;;;;;;;14.68;5.05;;;27.40;99.90;;;;;;5014625;28;20050;-76
2022/06/01 09:11:25;;;;;;;15.55;5.50;;;27.60;99.90;;;;;;5014375;28;20160;-76
2022/06/01 09:13:58;;;;;;;12.20;5.32;;;27.80;99.90;;;;;;4997202;28;20096;-77
2022/06/01 09:16:32;;;;;;;21.77;5.85;;;27.70;99.90;;;;;;5014936;28;20053;-77
2022/06/01 09:19:00;;;;;;;14.50;5.25;;;27.80;99.90;;;;;;5014673;28;20125;-77
2022/06/01 09:24:20;;;;;;;10.52;4.70;;;27.60;99.90;;;;;;5015937;28;20121;-77
2022/06/01 09:26:57;;;;;;;10.45;5.15;;;27.50;99.90;;;;;;5023872;28;20049;-77
2022/06/01 09:29:28;;;;;;;12.00;4.63;;;27.60;99.90;;;;;;5023438;28;20042;-77
2022/06/01 09:32:02;;;;;;;12.25;4.60;;;27.70;99.90;;;;;;5017161;28;20046;-76
2022/06/01 09:34:36;;;;;;;13.77;5.18;;;28.10;99.90;;;;;;5015581;28;20107;-77
2022/06/01 09:37:10;;;;;;;13.98;5.70;;;28.20;99.90;;;;;;5019782;28;20046;-77
2022/06/01 09:39:39;;;;;;;12.88;4.55;;;28.40;99.90;;;;;;5014712;28;20062;-77
2022/06/01 09:42:25;;;;;;;19.48;5.28;;;28.30;99.90;;;;;;5014319;28;20064;-75
2022/06/01 09:44:55;;;;;;;13.40;4.95;;;28.30;99.90;;;;;;5014192;28;20081;-76
2022/06/01 09:47:31;;;;;;;15.27;4.85;;;28.40;99.90;;;;;;4996361;28;20058;-77
2022/06/01 09:50:00;;;;;;;11.50;4.45;;;28.40;99.90;;;;;;5013997;28;20053;-76
2022/06/01 09:52:33;;;;;;;16.33;5.38;;;28.50;99.90;;;;;;5013894;28;20081;-76
2022/06/01 09:55:11;;;;;;;14.13;4.80;;;28.50;99.90;;;;;;5014798;28;20045;-77
2022/06/01 09:57:39;;;;;;;16.48;5.38;;;28.50;99.90;;;;;;5013631;28;20042;-76
2022/06/01 10:06:21;;;;;;;13.20;4.90;;;28.70;99.90;;;;;;5013360;28;20038;-77
2022/06/01 10:09:02;;;;;;;8.52;4.03;;;28.50;99.90;;;;;;5012509;28;20053;-76
2022/06/01 10:11:33;;;;;;;11.80;4.65;;;28.50;99.90;;;;;;5015554;28;20037;-76
2022/06/01 10:14:14;;;;;;;14.75;5.65;;;28.50;99.90;;;;;;4999111;28;20083;-76
2022/06/01 10:17:15;;;;;;;15.80;5.88;;;28.60;99.90;;;;;;4999508;28;20058;-77
2022/06/01 10:19:47;;;;;;;14.38;6.07;;;28.90;99.90;;;;;;5017679;28;20053;-76
2022/06/01 10:22:23;;;;;;;12.55;5.20;;;29.10;99.90;;;;;;4999075;28;20041;-76
2022/06/01 10:24:57;;;;;;;20.70;10.25;;;29.30;99.90;;;;;;4999518;28;20069;-77
2022/06/01 10:27:30;;;;;;;14.60;6.15;;;29.40;99.90;;;;;;4999348;28;20057;-75
2022/06/01 10:30:13;;;;;;;13.85;5.68;;;29.50;99.90;;;;;;5016956;28;20046;-75
2022/06/01 10:32:48;;;;;;;15.90;4.68;;;29.70;99.90;;;;;;5019271;28;20069;-76
2022/06/01 10:35:21;;;;;;;13.53;5.27;;;29.80;99.90;;;;;;5017565;28;20485;-77
2022/06/01 10:38:04;;;;;;;13.93;4.85;;;29.80;99.90;;;;;;4998914;28;20552;-77
2022/06/01 10:40:40;;;;;;;11.65;3.80;;;30.00;99.90;;;;;;4998860;28;20057;-76
2022/06/01 10:43:19;;;;;;;8.68;3.70;;;29.90;99.90;;;;;;5015616;28;20037;-77
2022/06/01 10:45:54;;;;;;;10.65;3.47;;;29.70;99.90;;;;;;4998979;28;20053;-76
2022/06/01 10:48:29;;;;;;;13.15;3.58;;;29.20;99.90;;;;;;5016552;28;20100;-77
2022/06/01 10:51:06;;;;;;;20.83;5.40;;;28.90;99.90;;;;;;5016420;28;20092;-76
2022/06/01 10:53:49;;;;;;;14.23;4.65;;;29.00;99.90;;;;;;4998377;28;20073;-76
2022/06/01 10:56:21;;;;;;;9.73;3.25;;;29.20;99.90;;;;;;5016347;28;20045;-76
2022/06/01 10:58:50;;;;;;;12.98;4.22;;;29.10;99.90;;;;;;5016245;28;20497;-76
2022/06/01 11:01:32;;;;;;;11.07;4.50;;;29.40;99.90;;;;;;4998683;28;20048;-77
2022/06/01 11:04:28;;;;;;;15.40;4.68;;;29.50;99.90;;;;;;5016003;28;20046;-77
2022/06/01 11:09:36;;;;;;;8.98;3.53;;;29.10;99.90;;;;;;5021324;28;20045;-78
2022/06/01 11:12:12;;;;;;;10.93;4.20;;;29.00;99.90;;;;;;5021350;28;20081;-76
2022/06/01 11:14:59;;;;;;;8.82;4.22;;;28.90;99.90;;;;;;5022323;28;20103;-78
2022/06/01 11:17:34;;;;;;;15.52;5.65;;;28.70;99.90;;;;;;5003272;28;20057;-78
2022/06/01 11:20:28;;;;;;;10.30;4.43;;;28.80;99.90;;;;;;5018268;28;20045;-77
2022/06/01 11:23:12;;;;;;;14.90;4.15;;;28.80;99.90;;;;;;5013555;28;20066;-79
2022/06/01 11:25:53;;;;;;;9.65;3.75;;;28.80;99.90;;;;;;5018338;28;20046;-77
2022/06/01 11:28:35;;;;;;;13.98;4.50;;;28.70;99.90;;;;;;5016999;28;20049;-78
2022/06/01 11:31:12;;;;;;;12.45;4.72;;;28.50;99.90;;;;;;5018583;28;20082;-78
2022/06/01 11:33:45;;;;;;;9.48;3.95;;;28.60;99.90;;;;;;5018339;28;20057;-78
2022/06/01 11:36:24;;;;;;;11.95;4.13;;;28.80;99.90;;;;;;5017960;28;20050;-79
2022/06/01 11:38:56;;;;;;;9.52;4.47;;;29.20;99.90;;;;;;5018738;28;20053;-79
2022/06/01 11:41:28;;;;;;;11.52;4.47;;;28.40;99.90;;;;;;5017411;28;20053;-78
2022/06/01 11:44:01;;;;;;;15.27;5.13;;;27.80;99.90;;;;;;5017377;28;20045;-78
2022/06/01 11:46:41;;;;;;;12.30;4.60;;;27.30;99.90;;;;;;5018619;28;20417;-78
2022/06/01 11:49:13;;;;;;;13.27;5.13;;;27.20;99.90;;;;;;5017169;28;20067;-76
2022/06/01 11:51:51;;;;;;;11.82;5.40;;;27.10;99.90;;;;;;5016891;28;20362;-76
2022/06/01 11:54:32;;;;;;;9.27;4.90;;;27.30;99.90;;;;;;5015783;28;20044;-78
2022/06/01 11:57:02;;;;;;;10.57;4.50;;;27.50;99.90;;;;;;5017159;28;20129;-78
2022/06/01 11:59:46;;;;;;;13.40;4.43;;;27.20;99.90;;;;;;5016916;28;20053;-77
2022/06/01 12:02:44;;;;;;;11.20;4.30;;;27.30;99.90;;;;;;5016245;28;20038;-79
2022/06/01 12:05:21;;;;;;;14.63;4.28;;;27.30;99.90;;;;;;5015939;28;20071;-77
2022/06/01 12:07:51;;;;;;;11.93;4.65;;;27.20;99.90;;;;;;5017106;28;20153;-78
2022/06/01 12:10:27;;;;;;;13.85;4.82;;;27.40;99.90;;;;;;5017647;28;20046;-79
2022/06/01 12:13:04;;;;;;;11.80;5.35;;;27.50;99.90;;;;;;5018761;28;20056;-78
2022/06/01 12:15:44;;;;;;;12.30;7.38;;;27.60;99.90;;;;;;5017442;28;20054;-78
2022/06/01 12:18:33;;;;;;;11.25;6.45;;;27.60;99.90;;;;;;5017431;28;20050;-78
2022/06/01 12:21:31;;;;;;;12.45;5.93;;;27.80;99.90;;;;;;5017680;28;20057;-77
2022/06/01 12:30:08;;;;;;;11.30;5.20;;;28.00;99.90;;;;;;4999784;28;20046;-79
2022/06/01 12:33:09;;;;;;;16.85;8.95;;;28.20;99.90;;;;;;5015959;28;20105;-78
2022/06/01 12:35:50;;;;;;;14.15;6.10;;;28.70;99.90;;;;;;5031836;28;20064;-78
2022/06/01 12:38:33;;;;;;;9.35;4.75;;;29.10;99.90;;;;;;5036474;28;20136;-77
2022/06/01 12:41:16;;;;;;;12.10;4.70;;;28.80;99.90;;;;;;5017538;28;20041;-79
2022/06/01 12:43:51;;;;;;;10.88;4.78;;;28.50;99.90;;;;;;5021102;28;20488;-77
2022/06/01 12:46:29;;;;;;;16.42;4.53;;;28.60;99.90;;;;;;5017560;28;20484;-78
2022/06/01 12:49:29;;;;;;;9.63;3.83;;;28.10;99.90;;;;;;5014586;28;20054;-77
2022/06/01 12:52:01;;;;;;;11.95;4.15;;;27.90;99.90;;;;;;5014256;28;20045;-77
2022/06/01 12:54:31;;;;;;;9.23;4.85;;;27.90;99.90;;;;;;5018704;28;20108;-78
2022/06/01 12:56:59;;;;;;;13.48;5.05;;;28.10;99.90;;;;;;5016572;28;20500;-77
2022/06/01 12:59:30;;;;;;;12.20;4.63;;;28.30;99.90;;;;;;5016547;28;20508;-78
2022/06/01 13:02:00;;;;;;;11.38;5.63;;;28.30;99.90;;;;;;5016850;28;20411;-77
2022/06/01 13:04:29;;;;;;;9.25;4.38;;;28.50;99.90;;;;;;5014702;28;20485;-78
2022/06/01 13:06:57;;;;;;;12.68;6.40;;;28.70;99.90;;;;;;5014840;28;20052;-78
2022/06/01 13:09:29;;;;;;;10.32;5.57;;;28.80;99.90;;;;;;5013960;28;20484;-76
2022/06/01 13:11:58;;;;;;;8.88;4.75;;;28.80;99.90;;;;;;5018628;28;20049;-76
2022/06/01 13:14:28;;;;;;;9.15;4.88;;;28.60;99.90;;;;;;5017528;28;20060;-78
2022/06/01 13:17:01;;;;;;;13.68;4.88;;;28.30;99.90;;;;;;5019596;28;20126;-77
2022/06/01 13:19:32;;;;;;;12.45;5.32;;;27.70;99.90;;;;;;5022787;28;20050;-77
2022/06/01 13:22:06;;;;;;;8.70;4.60;;;27.50;99.90;;;;;;5025831;28;20125;-78
2022/06/01 13:24:41;;;;;;;13.40;5.47;;;27.50;99.90;;;;;;5023159;28;20046;-78
2022/06/01 13:27:09;;;;;;;11.87;5.50;;;27.40;99.90;;;;;;5031432;28;20298;-77
2022/06/01 13:29:39;;;;;;;11.52;5.28;;;27.60;99.90;;;;;;5030297;28;20193;-77
2022/06/01 13:32:10;;;;;;;9.50;6.07;;;27.60;99.90;;;;;;5031346;28;20503;-77
2022/06/01 13:34:44;;;;;;;14.98;6.10;;;27.70;99.90;;;;;;5029379;28;20073;-77